Time;durP1;ratioP1;P1;durP2;ratioP2;P2;SDS_P1;SDS_P2;PMS_P1;PMS_P2;Temp;Humidity;BMP_temperature;BMP_pressure;BME280_temperature;BME280_humidity;BME280_pressure;Samples;Min_cycle;Max_cycle;Signal;HPM_P1;HPM_P2
2022/05/13 00:00:17;;;;;;;8.32;4.72;;;;;;;22.27;52.31;99123.47;5086914;28;20299;-76
2022/05/13 00:02:50;;;;;;;4.95;4.15;;;;;;;22.26;51.85;99126.34;5086763;28;20040;-75
2022/05/13 00:05:23;;;;;;;5.10;4.60;;;;;;;22.19;52.05;99128.00;5086745;28;20217;-75
2022/05/13 00:07:56;;;;;;;7.03;5.85;;;;;;;21.39;52.94;99008.81;5085681;28;20044;-74
2022/05/13 00:10:29;;;;;;;6.15;4.90;;;;;;;21.26;53.11;98985.00;5086551;28;20040;-75
2022/05/13 00:13:04;;;;;;;6.03;4.50;;;;;;;21.80;52.76;99085.38;5086715;28;20079;-75
2022/05/13 00:15:40;;;;;;;6.03;4.75;;;;;;;22.06;52.40;99123.91;5086109;28;20044;-75
2022/05/13 00:18:12;;;;;;;5.68;4.57;;;;;;;22.01;52.81;99131.66;5086813;28;20040;-74
2022/05/13 00:20:45;;;;;;;6.43;4.68;;;;;;;21.15;53.21;99036.50;5086407;28;20251;-75
2022/05/13 00:23:17;;;;;;;6.22;5.13;;;;;;;21.93;53.09;99179.34;5086657;28;20082;-75
2022/05/13 00:25:50;;;;;;;6.20;5.38;;;;;;;21.92;53.25;99223.50;5086106;28;20078;-75
2022/05/13 00:28:22;;;;;;;7.22;5.38;;;;;;;21.89;54.36;99259.75;5086571;28;20125;-75
2022/05/13 00:30:59;;;;;;;6.05;5.00;;;;;;;21.87;53.76;99256.38;5086732;28;20040;-75
2022/05/13 00:33:32;;;;;;;6.57;5.10;;;;;;;21.84;53.27;99237.81;5086336;28;20090;-75
2022/05/13 00:36:04;;;;;;;7.45;5.30;;;;;;;21.77;51.68;99223.22;5086117;28;20051;-75
2022/05/13 00:38:38;;;;;;;4.93;4.05;;;;;;;21.66;50.76;99212.69;5086421;28;20087;-74
2022/05/13 00:41:10;;;;;;;5.10;4.05;;;;;;;21.95;49.86;99272.59;5086346;28;20082;-76
2022/05/13 00:43:46;;;;;;;4.47;3.55;;;;;;;21.97;48.85;99273.28;5085813;28;20063;-76
2022/05/13 00:46:21;;;;;;;5.88;3.72;;;;;;;21.23;48.30;99133.56;5085854;28;20048;-76
2022/05/13 00:48:56;;;;;;;4.15;3.20;;;;;;;21.87;47.74;99240.19;5086692;28;20051;-77
2022/05/13 00:51:33;;;;;;;5.07;3.30;;;;;;;21.83;48.12;99243.34;5085451;28;20109;-76
2022/05/13 00:54:07;;;;;;;7.15;3.40;;;;;;;21.82;48.50;99274.88;5086243;28;20058;-75
2022/05/13 00:56:42;;;;;;;7.53;3.00;;;;;;;21.78;49.46;99270.78;5085944;28;20243;-75
2022/05/13 00:59:19;;;;;;;4.35;2.63;;;;;;;21.70;50.42;99286.91;5085866;28;20296;-74
2022/05/13 01:01:53;;;;;;;5.72;3.55;;;;;;;21.73;50.35;99294.69;5085868;28;20107;-74
2022/05/13 01:04:27;;;;;;;8.40;3.28;;;;;;;21.12;50.67;99273.94;5086249;28;20041;-74
2022/05/13 01:07:04;;;;;;;5.38;3.30;;;;;;;21.41;51.06;99358.09;5086109;28;20044;-74
2022/05/13 01:09:41;;;;;;;5.18;2.60;;;;;;;21.31;51.73;99386.13;5086139;28;20301;-75
2022/05/13 01:12:18;;;;;;;4.20;2.80;;;;;;;20.99;53.02;99410.84;5085653;28;20243;-75
2022/05/13 01:14:55;;;;;;;4.90;3.00;;;;;;;20.48;53.80;99369.94;5085584;28;20040;-76
2022/05/13 01:20:25;;;;;;;4.97;2.42;;;;;;;20.03;55.07;99344.69;5084375;28;20036;-75
2022/05/13 01:23:01;;;;;;;4.18;2.78;;;;;;;20.15;57.06;99416.16;5085540;28;20048;-75
2022/05/13 01:25:38;;;;;;;4.25;2.50;;;;;;;20.07;56.05;99419.56;5084668;28;20414;-75
2022/05/13 01:28:13;;;;;;;5.18;2.85;;;;;;;19.94;57.63;99410.97;5084560;28;20110;-75
2022/05/13 01:30:49;;;;;;;4.20;2.58;;;;;;;18.98;57.52;99266.59;5085661;28;20044;-75
2022/05/13 01:33:22;;;;;;;4.10;2.65;;;;;;;19.77;57.76;99431.31;5085073;28;20094;-75
2022/05/13 01:35:57;;;;;;;4.15;2.38;;;;;;;19.72;58.00;99400.47;5085594;28;20036;-75
2022/05/13 01:38:35;;;;;;;4.15;2.85;;;;;;;19.56;60.68;99384.88;5085615;28;20291;-75
2022/05/13 01:41:10;;;;;;;5.75;3.30;;;;;;;19.65;58.77;99384.03;5068723;28;20050;-75
2022/05/13 01:43:45;;;;;;;5.18;2.92;;;;;;;19.61;60.30;99385.31;5085747;28;20040;-75
2022/05/13 01:46:18;;;;;;;7.70;3.13;;;;;;;19.30;59.70;99360.38;5085433;28;20040;-75
2022/05/13 01:48:51;;;;;;;4.95;2.97;;;;;;;19.50;59.08;99385.44;5085338;28;20097;-75
2022/05/13 01:51:25;;;;;;;4.22;2.50;;;;;;;18.69;59.74;99293.41;5085569;28;20086;-75
2022/05/13 01:53:59;;;;;;;7.53;3.05;;;;;;;19.43;60.14;99374.41;5085707;28;20044;-75
2022/05/13 01:56:31;;;;;;;;;;;;;;;19.40;63.54;99398.88;5085162;28;20220;-75
2022/05/13 01:59:04;;;;;;;4.13;3.22;;;;;;;19.43;59.80;99392.38;5085488;28;20176;-75
2022/05/13 02:01:37;;;;;;;7.45;2.90;;;;;;;19.32;59.20;99366.44;5085607;28;20243;-75
2022/05/13 02:04:06;;;;;;;5.60;3.33;;;;;;;19.31;59.51;99362.06;5085319;28;20103;-75
2022/05/13 02:06:38;;;;;;;4.70;3.03;;;;;;;19.20;60.84;99357.66;5085249;28;20200;-75
2022/05/13 02:09:08;;;;;;;4.88;3.53;;;;;;;19.19;60.55;99333.63;5085210;28;20253;-75
2022/05/13 02:11:38;;;;;;;4.75;2.72;;;;;;;19.14;60.82;99344.78;5085151;28;20041;-75
2022/05/13 02:14:08;;;;;;;4.60;2.95;;;;;;;18.85;60.97;99311.66;5084399;28;20040;-75
2022/05/13 02:16:37;;;;;;;6.57;3.28;;;;;;;19.07;61.57;99342.81;5084881;28;20037;-75
2022/05/13 02:19:07;;;;;;;4.53;3.05;;;;;;;19.02;63.43;99334.31;5085284;28;20042;-75
2022/05/13 02:21:38;;;;;;;7.90;3.35;;;;;;;18.95;62.07;99325.97;5085113;28;20122;-75
2022/05/13 02:24:09;;;;;;;8.68;3.40;;;;;;;18.84;63.93;99305.44;5084550;28;20045;-75
2022/05/13 02:26:38;;;;;;;4.97;3.33;;;;;;;18.87;62.75;99291.75;5085032;28;20036;-75
2022/05/13 02:29:09;;;;;;;5.15;3.25;;;;;;;18.85;62.46;99292.88;5084920;28;20083;-75
2022/05/13 02:31:41;;;;;;;4.35;2.55;;;;;;;18.52;62.13;99235.00;5085372;28;20048;-75
2022/05/13 02:34:08;;;;;;;6.68;3.08;;;;;;;18.78;61.87;99292.56;5087561;28;20060;-75
2022/05/13 02:36:39;;;;;;;5.95;3.08;;;;;;;18.90;61.26;99290.63;5087795;28;20040;-75
2022/05/13 02:39:10;;;;;;;5.13;3.28;;;;;;;19.05;62.85;99283.84;5088018;28;20067;-75
2022/05/13 02:41:39;;;;;;;4.75;3.65;;;;;;;18.85;62.70;99277.59;5087811;28;20040;-75
2022/05/13 02:44:10;;;;;;;5.03;3.65;;;;;;;18.86;62.44;99263.19;5088679;28;20036;-75
2022/05/13 02:46:39;;;;;;;4.40;2.42;;;;;;;18.86;62.27;99256.97;5088097;28;20048;-75
2022/05/13 02:49:09;;;;;;;4.60;3.10;;;;;;;18.84;62.53;99265.16;5088337;28;20047;-75
2022/05/13 02:51:40;;;;;;;3.53;2.60;;;;;;;18.76;62.17;99256.09;5088098;28;20029;-75
2022/05/13 02:54:12;;;;;;;4.85;3.00;;;;;;;18.70;63.11;99270.09;5088591;28;20036;-75
2022/05/13 02:56:39;;;;;;;4.20;2.55;;;;;;;18.70;61.77;99270.09;5087898;28;20051;-75
2022/05/13 02:59:10;;;;;;;6.65;2.15;;;;;;;18.27;61.74;99196.94;5087398;28;20064;-75
2022/05/13 03:01:40;;;;;;;3.63;2.50;;;;;;;18.79;61.91;99282.69;5088400;28;20040;-75
2022/05/13 03:04:10;;;;;;;5.50;3.28;;;;;;;18.26;61.72;99186.34;5088112;28;20040;-75
2022/05/13 03:06:40;;;;;;;5.03;2.65;;;;;;;18.51;61.80;99247.56;5088274;28;20036;-75
2022/05/13 03:09:12;;;;;;;6.47;2.55;;;;;;;18.72;63.10;99287.75;5088494;28;20028;-75
2022/05/13 03:11:40;;;;;;;5.25;2.55;;;;;;;18.62;62.77;99281.50;5088203;28;20048;-75
2022/05/13 03:14:10;;;;;;;4.28;3.33;;;;;;;18.59;63.27;99273.75;5088470;28;20112;-75
2022/05/13 03:16:40;;;;;;;4.30;2.47;;;;;;;18.66;62.48;99292.81;5087881;28;20046;-75
2022/05/13 03:19:11;;;;;;;4.05;2.53;;;;;;;18.19;64.31;99210.19;5087223;28;20097;-75
2022/05/13 03:21:41;;;;;;;5.22;2.63;;;;;;;18.52;63.19;99292.22;5087847;28;20040;-75
2022/05/13 03:24:12;;;;;;;3.88;2.53;;;;;;;18.44;64.59;99301.91;5087642;28;20104;-75
2022/05/13 03:26:41;;;;;;;3.80;2.53;;;;;;;18.46;64.04;99295.41;5087615;28;20104;-75
2022/05/13 03:29:11;;;;;;;4.18;3.22;;;;;;;18.42;64.96;99301.19;5086756;28;20056;-75
2022/05/13 03:31:41;;;;;;;4.60;2.60;;;;;;;18.13;64.83;99247.44;5087583;28;20055;-75
2022/05/13 03:34:11;;;;;;;5.47;2.60;;;;;;;18.45;64.43;99301.78;5087483;28;20037;-75
2022/05/13 03:36:41;;;;;;;4.05;2.63;;;;;;;18.45;64.54;99298.25;5087922;28;20040;-75
2022/05/13 03:39:13;;;;;;;4.55;3.35;;;;;;;18.36;65.15;99305.25;5087382;28;20068;-75
2022/05/13 03:41:43;;;;;;;4.80;2.33;;;;;;;18.36;64.26;99307.09;5087458;28;20040;-75
2022/05/13 03:44:12;;;;;;;6.35;3.30;;;;;;;18.41;63.62;99311.06;5087387;28;20044;-75
2022/05/13 03:46:42;;;;;;;6.40;2.75;;;;;;;18.10;64.22;99253.06;5087583;28;20103;-75
2022/05/13 03:49:12;;;;;;;3.88;2.67;;;;;;;17.63;64.19;99218.69;5087570;28;20036;-75
2022/05/13 03:51:43;;;;;;;6.22;3.08;;;;;;;18.31;64.90;99314.69;5087313;28;20111;-75
2022/05/13 03:54:14;;;;;;;6.22;3.90;;;;;;;18.35;64.11;99313.44;5087271;28;20048;-75
2022/05/13 03:56:42;;;;;;;10.30;3.15;;;;;;;18.34;64.67;99304.56;5087226;28;20041;-75
2022/05/13 03:59:12;;;;;;;5.35;2.67;;;;;;;18.36;63.64;99307.94;5087476;28;20103;-75
2022/05/13 04:01:43;;;;;;;4.25;2.67;;;;;;;17.29;64.34;99140.34;5086821;28;20040;-75
2022/05/13 04:04:14;;;;;;;3.58;2.80;;;;;;;18.08;63.86;99245.16;5087103;28;20036;-75
2022/05/13 04:09:35;;;;;;;3.63;2.30;;;;;;;18.39;63.45;99310.34;5086877;28;20090;-75
2022/05/13 04:17:49;;;;;;;7.28;3.70;;;;;;;18.30;63.94;99321.91;5086760;28;20200;-75
2022/05/13 04:20:23;;;;;;;4.80;2.40;;;;;;;17.37;64.53;99165.63;5086816;28;20033;-75
2022/05/13 04:22:55;;;;;;;4.53;2.63;;;;;;;17.51;64.85;99221.53;5086572;28;20041;-75
2022/05/13 04:25:29;;;;;;;5.00;2.60;;;;;;;18.31;64.37;99328.13;5086743;28;20048;-75
2022/05/13 04:28:02;;;;;;;4.82;2.53;;;;;;;18.32;64.04;99335.19;5086118;28;20404;-75
2022/05/13 04:30:35;;;;;;;3.38;2.33;;;;;;;18.30;64.32;99334.47;5086015;28;20041;-75
2022/05/13 04:33:08;;;;;;;4.03;2.67;;;;;;;18.29;64.43;99338.97;5085863;28;20040;-75
2022/05/13 04:35:40;;;;;;;2.92;1.90;;;;;;;18.32;64.38;99336.03;5086563;28;20041;-75
2022/05/13 04:38:13;;;;;;;3.35;2.30;;;;;;;18.06;64.47;99279.28;5086540;28;20036;-75
2022/05/13 04:40:46;;;;;;;3.08;2.10;;;;;;;18.41;64.88;99332.53;5085503;28;20045;-75
2022/05/13 04:43:17;;;;;;;3.35;2.25;;;;;;;18.13;65.43;99298.38;5085982;28;20086;-75
2022/05/13 04:45:50;;;;;;;4.50;2.22;;;;;;;17.09;64.94;99122.44;5086103;28;20040;-75
2022/05/13 04:48:22;;;;;;;4.25;2.50;;;;;;;18.33;64.70;99335.03;5085669;28;20040;-75
2022/05/13 04:50:58;;;;;;;3.47;2.58;;;;;;;18.37;65.25;99330.25;5086259;28;20048;-75
2022/05/13 04:53:32;;;;;;;3.78;2.45;;;;;;;18.40;65.27;99330.00;5086474;28;20047;-75
2022/05/13 04:56:09;;;;;;;4.45;3.45;;;;;;;18.18;65.97;99302.38;5085046;28;20040;-75
2022/05/13 04:58:42;;;;;;;17.02;3.85;;;;;;;18.33;65.50;99337.72;5085421;28;20086;-75
2022/05/13 05:01:16;;;;;;;6.47;4.25;;;;;;;17.33;65.37;99199.00;5085970;28;20049;-75
2022/05/13 05:03:49;;;;;;;4.80;3.10;;;;;;;18.25;65.79;99341.09;5086224;28;20044;-75
2022/05/13 05:06:22;;;;;;;3.95;3.00;;;;;;;18.30;65.84;99353.25;5084751;28;20047;-75
2022/05/13 05:08:56;;;;;;;4.57;2.70;;;;;;;17.81;65.83;99285.09;5085016;28;20208;-75
2022/05/13 05:11:30;;;;;;;4.22;2.70;;;;;;;18.26;66.23;99356.19;5085862;28;20052;-75
2022/05/13 05:14:03;;;;;;;3.38;2.78;;;;;;;17.78;66.09;99267.44;5085007;28;20048;-75
2022/05/13 05:16:36;;;;;;;3.83;2.50;;;;;;;17.58;65.47;99253.03;5085247;28;20083;-75
2022/05/13 05:19:09;;;;;;;5.05;2.90;;;;;;;18.35;65.10;99346.50;5085802;28;20104;-75
2022/05/13 05:21:41;;;;;;;3.85;3.03;;;;;;;18.42;66.45;99334.25;5085564;28;20036;-75
2022/05/13 05:24:12;;;;;;;4.00;2.70;;;;;;;18.42;65.69;99344.13;5085947;28;20044;-75
2022/05/13 05:26:43;;;;;;;3.65;2.80;;;;;;;18.45;65.71;99342.03;5085567;28;20200;-75
2022/05/13 05:29:13;;;;;;;4.32;2.85;;;;;;;18.45;65.85;99347.38;5085401;28;20052;-75
2022/05/13 05:31:44;;;;;;;4.32;2.67;;;;;;;18.44;65.92;99353.72;5085852;28;20289;-76
2022/05/13 05:34:13;;;;;;;10.23;2.55;;;;;;;18.47;65.58;99349.94;5085845;28;20036;-76
2022/05/13 05:36:44;;;;;;;3.95;2.97;;;;;;;18.18;65.42;99294.31;5085573;28;20115;-76
2022/05/13 05:39:14;;;;;;;3.88;3.05;;;;;;;18.48;66.31;99340.91;5085225;28;20044;-76
2022/05/13 05:41:45;;;;;;;4.18;2.83;;;;;;;18.50;66.09;99350.50;5084557;28;20048;-76
2022/05/13 05:44:14;;;;;;;4.53;2.80;;;;;;;18.51;65.53;99346.84;5085590;28;20036;-76
2022/05/13 05:46:44;;;;;;;5.07;2.95;;;;;;;18.50;65.19;99350.50;5085566;28;20045;-76
2022/05/13 05:49:15;;;;;;;3.67;2.92;;;;;;;18.49;65.39;99353.34;5084671;28;20064;-76
2022/05/13 05:51:45;;;;;;;5.32;3.28;;;;;;;18.46;65.12;99345.56;5085370;28;20067;-76
2022/05/13 05:57:16;;;;;;;3.50;3.00;;;;;;;18.41;66.30;99356.69;5085340;28;20079;-76
2022/05/13 05:59:48;;;;;;;4.82;3.80;;;;;;;18.45;65.99;99354.59;5085469;28;20096;-76
2022/05/13 06:02:21;;;;;;;5.18;3.42;;;;;;;18.50;65.25;99355.88;5084427;28;20040;-76
2022/05/13 06:04:53;;;;;;;4.38;3.00;;;;;;;18.51;65.20;99354.91;5085241;28;20041;-76
2022/05/13 06:07:27;;;;;;;4.05;3.20;;;;;;;18.47;65.48;99360.66;5088566;28;20036;-76
2022/05/13 06:10:00;;;;;;;4.60;3.08;;;;;;;18.50;65.27;99358.56;5089835;28;20311;-76
2022/05/13 06:12:35;;;;;;;4.25;3.10;;;;;;;18.25;65.98;99326.81;5089125;28;20044;-77
2022/05/13 06:15:09;;;;;;;5.22;2.88;;;;;;;17.99;65.33;99262.03;5089310;28;20051;-76
2022/05/13 06:17:46;;;;;;;5.03;2.83;;;;;;;18.27;65.85;99312.28;5089429;28;20040;-77
2022/05/13 06:20:22;;;;;;;3.80;2.80;;;;;;;18.57;66.06;99361.59;5089291;28;20312;-76
2022/05/13 06:22:55;;;;;;;4.13;3.30;;;;;;;18.59;65.43;99368.53;5088803;28;20040;-76
2022/05/13 06:25:28;;;;;;;4.57;3.28;;;;;;;18.58;65.47;99365.97;5088360;28;20285;-76
2022/05/13 06:28:03;;;;;;;;;;;;;;;18.51;67.21;99375.50;5089055;28;20045;-76
2022/05/13 06:30:38;;;;;;;6.60;3.63;;;;;;;18.55;65.28;99369.78;5088767;28;19916;-76
2022/05/13 06:33:11;;;;;;;3.60;2.65;;;;;;;18.58;65.33;99368.66;5088603;28;20044;-76
2022/05/13 06:35:43;;;;;;;4.55;3.20;;;;;;;18.63;65.52;99368.25;5088224;28;20036;-76
2022/05/13 06:38:20;;;;;;;5.35;3.28;;;;;;;17.47;65.53;99187.94;5087431;28;20041;-76
2022/05/13 06:40:54;;;;;;;6.78;3.78;;;;;;;14.23;65.12;98645.00;5087125;28;20032;-76
2022/05/13 06:43:29;;;;;;;;;;;;;;;18.61;67.23;99376.44;5088592;28;20103;-76
2022/05/13 06:46:01;;;;;;;4.80;3.17;;;;;;;18.59;65.51;99376.56;5088598;28;19916;-76
2022/05/13 06:48:34;;;;;;;3.65;2.72;;;;;;;18.64;64.99;99380.69;5088265;28;20040;-77
2022/05/13 06:51:07;;;;;;;6.28;2.85;;;;;;;18.66;65.00;99382.25;5088091;28;20043;-76
2022/05/13 06:53:39;;;;;;;3.92;3.08;;;;;;;17.75;65.36;99232.84;5088052;28;20051;-75
2022/05/13 06:56:12;;;;;;;4.50;2.70;;;;;;;18.67;65.19;99377.72;5087656;28;20036;-75
2022/05/13 06:58:46;;;;;;;6.88;3.90;;;;;;;18.68;65.41;99393.69;5088017;28;20040;-75
2022/05/13 07:01:21;;;;;;;3.88;2.75;;;;;;;18.70;64.84;99380.16;5087165;28;20048;-77
2022/05/13 07:03:54;;;;;;;5.38;3.10;;;;;;;18.68;65.13;99391.03;5087883;28;20036;-75
2022/05/13 07:06:26;;;;;;;4.70;3.00;;;;;;;18.66;65.11;99390.31;5088144;28;20041;-76
2022/05/13 07:08:58;;;;;;;4.57;3.03;;;;;;;18.34;65.14;99352.84;5071476;28;20048;-75
2022/05/13 07:11:31;;;;;;;3.83;2.83;;;;;;;18.58;65.52;99398.19;5086997;28;20066;-76
2022/05/13 07:14:04;;;;;;;4.40;3.22;;;;;;;18.55;65.31;99399.31;5087745;28;20040;-76
2022/05/13 07:16:39;;;;;;;5.15;3.83;;;;;;;18.51;66.10;99402.34;5087274;28;20051;-76
2022/05/13 07:19:11;;;;;;;3.72;2.97;;;;;;;18.48;66.23;99416.88;5087013;28;20311;-76
2022/05/13 07:21:44;;;;;;;4.43;3.53;;;;;;;18.41;66.89;99410.34;5087835;28;20236;-76
2022/05/13 07:24:16;;;;;;;3.83;3.28;;;;;;;18.08;66.50;99357.78;5087517;28;20178;-76
2022/05/13 07:26:49;;;;;;;4.63;3.45;;;;;;;18.41;66.13;99398.78;5087708;28;20052;-76
2022/05/13 07:29:21;;;;;;;4.57;3.65;;;;;;;18.39;66.50;99398.06;5087117;28;20120;-77
2022/05/13 07:31:52;;;;;;;5.80;3.35;;;;;;;18.40;66.35;99395.25;5086476;28;20044;-77
2022/05/13 07:34:23;;;;;;;4.63;3.58;;;;;;;18.11;66.50;99346.78;5086550;28;20048;-76
2022/05/13 07:36:54;;;;;;;4.13;3.03;;;;;;;18.43;66.59;99383.38;5087188;28;20080;-76
2022/05/13 07:42:13;;;;;;;5.10;3.25;;;;;;;18.37;67.36;99383.91;5086944;28;20037;-77
2022/05/13 07:44:48;;;;;;;5.22;3.72;;;;;;;18.29;68.05;99389.94;5086790;28;20299;-77
2022/05/13 07:47:20;;;;;;;5.00;4.07;;;;;;;18.06;68.29;99342.81;5086712;28;20264;-76
2022/05/13 07:49:53;;;;;;;4.38;2.92;;;;;;;18.28;67.72;99383.72;5086878;28;20108;-76
2022/05/13 07:52:26;;;;;;;5.43;4.38;;;;;;;18.07;67.24;99350.72;5086805;28;20086;-76
2022/05/13 07:54:59;;;;;;;5.35;3.35;;;;;;;18.27;68.08;99376.66;5086978;28;20040;-76
2022/05/13 07:57:31;;;;;;;4.43;3.55;;;;;;;18.31;68.11;99384.44;5086149;28;20041;-76
2022/05/13 08:02:59;;;;;;;4.88;3.70;;;;;;;18.35;67.85;99399.31;5086872;28;20044;-76
2022/05/13 08:05:36;;;;;;;4.28;3.38;;;;;;;18.37;67.52;99387.44;5086975;28;20040;-76
2022/05/13 08:08:11;;;;;;;5.35;3.47;;;;;;;18.08;68.03;99333.66;5085793;28;20246;-75
2022/05/13 08:10:46;;;;;;;5.63;3.67;;;;;;;18.37;68.22;99386.59;5086798;28;20040;-75
2022/05/13 08:13:18;;;;;;;3.70;3.10;;;;;;;18.35;67.79;99402.84;5086818;28;20350;-75
2022/05/13 08:15:52;;;;;;;5.90;4.07;;;;;;;18.39;68.42;99408.78;5086626;28;20041;-75
2022/05/13 08:18:25;;;;;;;7.30;4.05;;;;;;;17.24;68.00;99225.59;5086762;28;20289;-75
2022/05/13 08:20:58;;;;;;;4.47;3.28;;;;;;;18.45;68.22;99406.41;5085571;28;20082;-75
2022/05/13 08:23:31;;;;;;;4.78;3.67;;;;;;;17.74;67.77;99281.22;5086178;28;20044;-75
2022/05/13 08:26:04;;;;;;;4.40;3.40;;;;;;;18.30;67.14;99374.69;5085873;28;20052;-76
2022/05/13 08:28:36;;;;;;;4.15;3.38;;;;;;;18.49;67.63;99410.53;5085930;28;20102;-76
2022/05/13 08:31:11;;;;;;;4.13;2.97;;;;;;;18.47;68.19;99425.06;5085242;28;20094;-76
2022/05/13 08:33:43;;;;;;;5.07;3.13;;;;;;;17.78;67.66;99298.75;5085383;28;20047;-76
2022/05/13 08:36:16;;;;;;;3.90;3.00;;;;;;;18.18;67.39;99356.00;5085643;28;20048;-76
2022/05/13 08:38:50;;;;;;;5.05;3.20;;;;;;;18.55;67.22;99407.34;5085414;28;20090;-76
2022/05/13 08:41:39;;;;;;;3.55;2.85;;;;;;;18.57;67.57;99409.91;5085518;28;20045;-75
2022/05/13 08:44:13;;;;;;;4.35;3.25;;;;;;;18.33;66.42;99382.50;5086191;28;20041;-76
2022/05/13 08:46:57;;;;;;;8.73;2.90;;;;;;;18.63;67.83;99419.25;5085306;28;20033;-76
2022/05/13 08:49:35;;;;;;;3.95;3.13;;;;;;;18.66;66.39;99411.78;5085708;28;20051;-76
2022/05/13 08:55:08;;;;;;;3.80;2.25;;;;;;;18.75;66.21;99410.97;5085189;28;20113;-75
2022/05/13 08:57:44;;;;;;;3.75;2.83;;;;;;;18.85;66.10;99409.19;5085962;28;20036;-75
2022/05/13 09:00:23;;;;;;;3.70;2.47;;;;;;;18.98;65.57;99402.72;5085812;28;20090;-76
2022/05/13 09:03:04;;;;;;;4.20;2.72;;;;;;;19.03;65.64;99395.94;5085423;28;20247;-76
2022/05/13 09:05:42;;;;;;;5.03;3.10;;;;;;;19.13;65.01;99393.28;5085681;28;20044;-75
2022/05/13 09:08:14;;;;;;;3.30;2.40;;;;;;;19.23;65.03;99397.69;5085613;28;20243;-76
2022/05/13 09:10:59;;;;;;;4.60;2.88;;;;;;;19.33;65.07;99394.16;5084996;28;20044;-76
2022/05/13 09:13:40;;;;;;;3.20;2.20;;;;;;;19.39;64.99;99397.19;5085793;28;20094;-76
2022/05/13 09:16:13;;;;;;;4.20;2.60;;;;;;;19.45;64.76;99390.41;5085569;28;20040;-76
2022/05/13 09:18:56;;;;;;;3.75;2.88;;;;;;;19.41;64.90;99373.69;5085443;28;20044;-76
2022/05/13 09:21:28;;;;;;;4.25;3.25;;;;;;;19.57;64.37;99385.75;5085796;28;20330;-76
2022/05/13 09:24:00;;;;;;;3.47;2.35;;;;;;;19.64;64.20;99379.66;5085364;28;20045;-76
2022/05/13 09:26:33;;;;;;;4.55;3.08;;;;;;;19.72;64.22;99382.47;5085607;28;20145;-76
2022/05/13 09:29:11;;;;;;;3.65;2.47;;;;;;;19.78;63.96;99384.59;5084382;28;20056;-76
2022/05/13 09:31:47;;;;;;;4.70;2.65;;;;;;;19.81;63.58;99372.75;5085313;28;20220;-76
2022/05/13 09:34:40;;;;;;;4.82;2.83;;;;;;;19.90;64.23;99371.88;5084370;28;20243;-76
2022/05/13 09:37:18;;;;;;;4.07;2.90;;;;;;;19.67;63.94;99339.03;5085591;28;20229;-76
2022/05/13 09:40:05;;;;;;;3.63;2.50;;;;;;;19.77;63.60;99342.56;5084926;28;20048;-76
2022/05/13 09:42:39;;;;;;;4.15;2.88;;;;;;;20.05;63.39;99383.06;5084281;28;20158;-76
2022/05/13 09:45:25;;;;;;;4.38;3.00;;;;;;;19.84;63.55;99338.34;5085005;28;20101;-77
2022/05/13 09:48:17;;;;;;;3.70;3.00;;;;;;;20.10;63.65;99370.03;5085257;28;20343;-76
2022/05/13 09:50:55;;;;;;;4.15;3.20;;;;;;;20.14;63.07;99361.50;5084251;28;20037;-76
2022/05/13 09:53:32;;;;;;;3.58;2.70;;;;;;;19.70;63.17;99301.13;5084528;28;20090;-76
2022/05/13 09:56:05;;;;;;;6.28;3.08;;;;;;;20.28;63.32;99370.16;5084506;28;20040;-76
2022/05/13 09:58:51;;;;;;;4.28;3.00;;;;;;;20.29;62.31;99361.09;5084932;28;20040;-76
2022/05/13 10:01:29;;;;;;;4.82;3.58;;;;;;;20.28;62.36;99362.06;5084824;28;20041;-77
2022/05/13 10:04:08;;;;;;;4.88;3.47;;;;;;;20.32;62.62;99352.72;5085075;28;20095;-76
2022/05/13 10:06:43;;;;;;;5.88;3.38;;;;;;;20.39;62.24;99383.44;5085096;28;20342;-76
2022/05/13 10:15:13;;;;;;;4.60;3.17;;;;;;;20.54;61.11;99351.50;5084740;28;20048;-77
2022/05/13 10:17:50;;;;;;;4.20;2.95;;;;;;;20.60;61.28;99338.28;5084744;28;20086;-77
2022/05/13 10:20:29;;;;;;;4.35;3.38;;;;;;;20.64;61.00;99355.00;5084906;28;20098;-77
2022/05/13 10:23:19;;;;;;;5.95;3.40;;;;;;;20.65;60.26;99333.31;5084906;28;20048;-77
2022/05/13 10:25:59;;;;;;;4.47;3.42;;;;;;;20.71;60.35;99342.63;5084568;28;20044;-77
2022/05/13 10:28:35;;;;;;;3.97;3.20;;;;;;;19.69;60.34;99181.13;5083718;28;20217;-77
2022/05/13 10:31:11;;;;;;;5.38;3.53;;;;;;;20.75;60.56;99347.56;5084663;28;20097;-77
2022/05/13 10:33:54;;;;;;;6.00;4.45;;;;;;;20.77;61.15;99340.19;5084981;28;20040;-77
2022/05/13 10:36:31;;;;;;;5.38;4.25;;;;;;;20.83;60.61;99338.75;5084673;28;20040;-77
2022/05/13 10:39:13;;;;;;;4.07;3.67;;;;;;;20.89;60.96;99334.59;5084689;28;20044;-76
2022/05/13 10:41:48;;;;;;;4.47;3.80;;;;;;;21.00;60.97;99339.78;5083583;28;20213;-76
2022/05/13 10:44:26;;;;;;;3.90;3.50;;;;;;;21.10;60.30;99327.97;5084650;28;20067;-76
2022/05/13 10:47:01;;;;;;;4.28;3.72;;;;;;;20.20;60.16;99147.50;5084079;28;20082;-72
2022/05/13 10:49:36;;;;;;;5.50;3.78;;;;;;;21.31;60.14;99311.50;5084591;28;20044;-73
2022/05/13 10:52:18;;;;;;;5.15;4.05;;;;;;;21.39;59.52;99316.13;5083860;28;20090;-73
2022/05/13 10:54:55;;;;;;;5.22;3.95;;;;;;;21.20;58.76;99267.78;5088268;28;20045;-73
2022/05/13 10:57:35;;;;;;;5.20;4.35;;;;;;;21.50;58.39;99301.56;5087928;28;20059;-72
2022/05/13 11:00:12;;;;;;;5.78;4.63;;;;;;;19.92;58.13;99028.34;5087893;28;20044;-73
2022/05/13 11:03:15;;;;;;;4.78;4.20;;;;;;;21.66;58.46;99299.00;5087927;28;20044;-72
2022/05/13 11:05:58;;;;;;;4.90;3.50;;;;;;;21.77;58.40;99296.06;5087769;28;20048;-73
2022/05/13 11:08:42;;;;;;;4.85;4.13;;;;;;;21.81;56.94;99302.88;5087830;28;20246;-72
2022/05/13 11:11:27;;;;;;;4.65;4.07;;;;;;;21.91;56.95;99286.56;5087599;28;20036;-72
2022/05/13 11:14:07;;;;;;;5.53;4.47;;;;;;;22.18;56.85;99291.81;5087550;28;20062;-73
2022/05/13 11:16:50;;;;;;;5.57;4.40;;;;;;;22.24;55.21;99282.22;5087926;28;20174;-73
2022/05/13 11:19:27;;;;;;;6.13;4.35;;;;;;;22.27;54.74;99277.34;5087377;28;20044;-72
2022/05/13 11:22:05;;;;;;;6.65;4.07;;;;;;;22.31;54.61;99280.56;5087457;28;20048;-73
2022/05/13 11:27:57;;;;;;;8.63;6.22;;;;;;;22.63;54.26;99266.44;5086317;28;20040;-72
2022/05/13 11:30:38;;;;;;;5.15;4.03;;;;;;;22.59;54.16;99228.09;5087364;28;20094;-72
2022/05/13 11:33:28;;;;;;;5.28;3.63;;;;;;;22.93;52.11;99262.28;5087199;28;20044;-73
2022/05/13 11:36:29;;;;;;;4.65;4.13;;;;;;;23.00;51.48;99247.09;5087370;28;20047;-72
2022/05/13 11:39:26;;;;;;;4.68;3.85;;;;;;;23.22;52.35;99246.44;5072118;28;20056;-72
2022/05/13 11:42:05;;;;;;;6.30;3.67;;;;;;;23.32;51.87;99228.25;5086993;28;20040;-72
2022/05/13 11:44:49;;;;;;;5.45;3.63;;;;;;;23.48;51.15;99229.25;5086292;28;20052;-72
2022/05/13 11:47:35;;;;;;;4.60;3.55;;;;;;;23.44;50.65;99226.03;5087236;28;20040;-72
2022/05/13 11:50:11;;;;;;;5.45;3.50;;;;;;;23.47;51.59;99230.25;5086982;28;20037;-72
2022/05/13 11:52:47;;;;;;;4.03;3.20;;;;;;;22.55;50.31;99099.81;5087064;28;20157;-72
2022/05/13 11:55:24;;;;;;;4.50;3.80;;;;;;;23.37;50.33;99227.72;5086825;28;20142;-72
2022/05/13 11:57:57;;;;;;;4.43;3.15;;;;;;;23.41;50.62;99220.97;5086791;28;20048;-72
2022/05/13 12:00:40;;;;;;;3.80;3.05;;;;;;;23.41;48.49;99220.13;5086379;28;20040;-72
2022/05/13 12:03:19;;;;;;;3.92;3.10;;;;;;;23.45;49.13;99211.50;5086599;28;20178;-72
2022/05/13 12:06:02;;;;;;;5.25;3.28;;;;;;;23.44;48.95;99203.56;5086925;28;20078;-72
2022/05/13 12:08:42;;;;;;;6.45;3.53;;;;;;;23.25;48.90;99175.81;5085779;28;20040;-72
2022/05/13 12:11:46;;;;;;;4.55;3.10;;;;;;;23.52;48.71;99200.84;5085674;28;20044;-72
2022/05/13 12:14:26;;;;;;;5.22;3.60;;;;;;;23.57;49.33;99195.75;5086404;28;20204;-72
2022/05/13 12:17:11;;;;;;;9.10;3.67;;;;;;;23.61;48.43;99202.53;5086333;28;20048;-72
2022/05/13 12:19:53;;;;;;;4.85;3.30;;;;;;;23.64;48.03;99185.94;5086323;28;20097;-72
2022/05/13 12:22:39;;;;;;;3.50;2.60;;;;;;;23.63;48.09;99190.50;5086199;28;20085;-71
2022/05/13 12:25:14;;;;;;;4.35;2.90;;;;;;;23.61;49.50;99186.28;5085885;28;20048;-72
2022/05/13 12:28:02;;;;;;;4.97;3.70;;;;;;;23.58;49.49;99182.06;5085990;28;20082;-73
2022/05/13 12:30:36;;;;;;;4.43;2.72;;;;;;;22.69;48.61;99065.88;5086011;28;20231;-72
2022/05/13 12:33:29;;;;;;;;;;;;;;;23.46;46.49;99210.47;5086575;28;20087;-72
2022/05/13 12:39:12;;;;;;;5.75;3.17;;;;;;;23.63;46.43;99173.44;5086178;28;20048;-71
2022/05/13 12:41:53;;;;;;;3.65;2.33;;;;;;;23.11;46.60;99087.31;5086108;28;20052;-72
2022/05/13 12:44:34;;;;;;;4.28;2.90;;;;;;;23.83;47.76;99165.78;5085814;28;20182;-72